sensor_id;sensor_type;location;lat;lon;timestamp;P1;durP1;ratioP1;P2;durP2;ratioP2
568;SDS011;269;48.884;9.192;2023-07-22T00:01:30;3.03;;;2.83;;
568;SDS011;269;48.884;9.192;2023-07-22T00:03:58;3.30;;;3.00;;
568;SDS011;269;48.884;9.192;2023-07-22T00:06:26;3.20;;;2.90;;
568;SDS011;269;48.884;9.192;2023-07-22T00:08:52;3.37;;;3.07;;
568;SDS011;269;48.884;9.192;2023-07-22T00:11:20;3.43;;;3.13;;
568;SDS011;269;48.884;9.192;2023-07-22T00:13:47;2.93;;;2.73;;
568;SDS011;269;48.884;9.192;2023-07-22T00:16:13;3.73;;;3.17;;
568;SDS011;269;48.884;9.192;2023-07-22T00:18:40;3.10;;;2.80;;
568;SDS011;269;48.884;9.192;2023-07-22T00:21:07;3.83;;;2.90;;
568;SDS011;269;48.884;9.192;2023-07-22T00:23:35;4.90;;;3.03;;
568;SDS011;269;48.884;9.192;2023-07-22T00:26:02;3.17;;;2.77;;
568;SDS011;269;48.884;9.192;2023-07-22T00:28:29;3.40;;;3.07;;
568;SDS011;269;48.884;9.192;2023-07-22T00:30:56;4.03;;;3.30;;
568;SDS011;269;48.884;9.192;2023-07-22T00:33:23;3.20;;;3.00;;
568;SDS011;269;48.884;9.192;2023-07-22T00:35:50;2.90;;;2.70;;
568;SDS011;269;48.884;9.192;2023-07-22T00:38:17;3.93;;;2.83;;
568;SDS011;269;48.884;9.192;2023-07-22T00:40:46;2.93;;;2.70;;
568;SDS011;269;48.884;9.192;2023-07-22T00:43:13;3.30;;;3.00;;
568;SDS011;269;48.884;9.192;2023-07-22T00:45:41;3.63;;;3.13;;
568;SDS011;269;48.884;9.192;2023-07-22T00:48:08;3.17;;;2.90;;
568;SDS011;269;48.884;9.192;2023-07-22T00:50:36;3.00;;;2.80;;
568;SDS011;269;48.884;9.192;2023-07-22T00:53:03;3.13;;;2.83;;
568;SDS011;269;48.884;9.192;2023-07-22T00:55:30;3.10;;;2.80;;
568;SDS011;269;48.884;9.192;2023-07-22T00:58:00;3.30;;;2.90;;
568;SDS011;269;48.884;9.192;2023-07-22T01:00:27;3.60;;;3.30;;
568;SDS011;269;48.884;9.192;2023-07-22T01:02:54;3.37;;;3.07;;
568;SDS011;269;48.884;9.192;2023-07-22T01:05:21;3.03;;;2.83;;
568;SDS011;269;48.884;9.192;2023-07-22T01:07:47;3.00;;;2.70;;
568;SDS011;269;48.884;9.192;2023-07-22T01:10:14;3.27;;;2.97;;
568;SDS011;269;48.884;9.192;2023-07-22T01:12:41;3.40;;;2.97;;
568;SDS011;269;48.884;9.192;2023-07-22T01:15:09;3.60;;;3.00;;
568;SDS011;269;48.884;9.192;2023-07-22T01:17:37;3.53;;;3.10;;
568;SDS011;269;48.884;9.192;2023-07-22T01:20:04;3.40;;;3.07;;
568;SDS011;269;48.884;9.192;2023-07-22T01:22:32;3.27;;;2.97;;
568;SDS011;269;48.884;9.192;2023-07-22T01:25:01;3.40;;;3.10;;
568;SDS011;269;48.884;9.192;2023-07-22T01:27:28;3.20;;;2.97;;
568;SDS011;269;48.884;9.192;2023-07-22T01:29:55;5.60;;;3.77;;
568;SDS011;269;48.884;9.192;2023-07-22T01:32:22;3.37;;;3.07;;
568;SDS011;269;48.884;9.192;2023-07-22T01:34:49;3.50;;;3.20;;
568;SDS011;269;48.884;9.192;2023-07-22T01:37:15;3.60;;;3.27;;
568;SDS011;269;48.884;9.192;2023-07-22T01:39:42;3.97;;;3.60;;
568;SDS011;269;48.884;9.192;2023-07-22T01:42:11;3.60;;;3.30;;
568;SDS011;269;48.884;9.192;2023-07-22T01:44:39;5.40;;;3.73;;
568;SDS011;269;48.884;9.192;2023-07-22T01:47:06;4.23;;;3.90;;
568;SDS011;269;48.884;9.192;2023-07-22T01:49:33;4.60;;;3.10;;
568;SDS011;269;48.884;9.192;2023-07-22T01:52:00;4.37;;;3.90;;
568;SDS011;269;48.884;9.192;2023-07-22T01:54:27;3.60;;;3.30;;
568;SDS011;269;48.884;9.192;2023-07-22T01:56:54;5.57;;;3.40;;
568;SDS011;269;48.884;9.192;2023-07-22T01:59:22;4.63;;;3.70;;
568;SDS011;269;48.884;9.192;2023-07-22T02:01:49;4.83;;;4.00;;
568;SDS011;269;48.884;9.192;2023-07-22T02:04:16;4.10;;;3.50;;
568;SDS011;269;48.884;9.192;2023-07-22T02:06:43;4.30;;;3.90;;
568;SDS011;269;48.884;9.192;2023-07-22T02:09:10;4.43;;;3.87;;
568;SDS011;269;48.884;9.192;2023-07-22T02:11:38;5.03;;;4.53;;
568;SDS011;269;48.884;9.192;2023-07-22T02:14:05;4.43;;;4.07;;
568;SDS011;269;48.884;9.192;2023-07-22T02:16:34;3.80;;;3.50;;
568;SDS011;269;48.884;9.192;2023-07-22T02:19:01;4.27;;;3.97;;
568;SDS011;269;48.884;9.192;2023-07-22T02:21:28;3.97;;;3.57;;
568;SDS011;269;48.884;9.192;2023-07-22T02:23:55;4.43;;;4.03;;
568;SDS011;269;48.884;9.192;2023-07-22T02:26:22;4.53;;;4.13;;
568;SDS011;269;48.884;9.192;2023-07-22T02:28:49;5.27;;;4.50;;
568;SDS011;269;48.884;9.192;2023-07-22T02:31:16;4.60;;;4.20;;
568;SDS011;269;48.884;9.192;2023-07-22T02:33:44;4.73;;;4.23;;
568;SDS011;269;48.884;9.192;2023-07-22T02:36:12;4.67;;;4.30;;
568;SDS011;269;48.884;9.192;2023-07-22T02:38:39;5.00;;;4.60;;
568;SDS011;269;48.884;9.192;2023-07-22T02:41:05;5.70;;;5.20;;
568;SDS011;269;48.884;9.192;2023-07-22T02:43:33;5.33;;;4.93;;
568;SDS011;269;48.884;9.192;2023-07-22T02:46:00;6.33;;;5.30;;
568;SDS011;269;48.884;9.192;2023-07-22T02:48:27;5.10;;;4.60;;
568;SDS011;269;48.884;9.192;2023-07-22T02:51:01;5.30;;;4.70;;
568;SDS011;269;48.884;9.192;2023-07-22T02:53:28;5.10;;;4.70;;
568;SDS011;269;48.884;9.192;2023-07-22T02:55:56;5.33;;;4.87;;
568;SDS011;269;48.884;9.192;2023-07-22T02:58:23;6.57;;;4.97;;
568;SDS011;269;48.884;9.192;2023-07-22T03:00:50;5.37;;;4.90;;
568;SDS011;269;48.884;9.192;2023-07-22T03:03:16;4.90;;;4.50;;
568;SDS011;269;48.884;9.192;2023-07-22T03:05:44;5.00;;;4.70;;
568;SDS011;269;48.884;9.192;2023-07-22T03:08:14;5.50;;;5.00;;
568;SDS011;269;48.884;9.192;2023-07-22T03:10:40;5.80;;;4.37;;
568;SDS011;269;48.884;9.192;2023-07-22T03:13:09;5.20;;;4.80;;
568;SDS011;269;48.884;9.192;2023-07-22T03:15:36;6.73;;;6.13;;
568;SDS011;269;48.884;9.192;2023-07-22T03:18:04;5.10;;;4.60;;
568;SDS011;269;48.884;9.192;2023-07-22T03:20:32;6.30;;;5.70;;
568;SDS011;269;48.884;9.192;2023-07-22T03:22:58;6.67;;;6.07;;
568;SDS011;269;48.884;9.192;2023-07-22T03:25:26;5.93;;;5.43;;
568;SDS011;269;48.884;9.192;2023-07-22T03:27:53;6.97;;;6.30;;
568;SDS011;269;48.884;9.192;2023-07-22T03:30:21;6.77;;;6.17;;
568;SDS011;269;48.884;9.192;2023-07-22T03:32:48;6.23;;;5.63;;
568;SDS011;269;48.884;9.192;2023-07-22T03:35:16;7.17;;;6.47;;
568;SDS011;269;48.884;9.192;2023-07-22T03:37:43;7.60;;;6.90;;
568;SDS011;269;48.884;9.192;2023-07-22T03:40:10;7.40;;;6.80;;
568;SDS011;269;48.884;9.192;2023-07-22T03:42:46;6.80;;;6.20;;
568;SDS011;269;48.884;9.192;2023-07-22T03:45:13;6.83;;;6.23;;
568;SDS011;269;48.884;9.192;2023-07-22T03:47:39;8.03;;;6.50;;
568;SDS011;269;48.884;9.192;2023-07-22T03:50:07;6.90;;;6.30;;
568;SDS011;269;48.884;9.192;2023-07-22T03:52:34;7.27;;;6.67;;
568;SDS011;269;48.884;9.192;2023-07-22T03:55:01;7.10;;;6.50;;
568;SDS011;269;48.884;9.192;2023-07-22T03:57:28;6.20;;;5.60;;
568;SDS011;269;48.884;9.192;2023-07-22T03:59:57;6.93;;;6.43;;
568;SDS011;269;48.884;9.192;2023-07-22T04:02:24;7.70;;;6.90;;
568;SDS011;269;48.884;9.192;2023-07-22T04:04:51;6.90;;;6.27;;
568;SDS011;269;48.884;9.192;2023-07-22T04:07:19;7.53;;;6.83;;
568;SDS011;269;48.884;9.192;2023-07-22T04:09:46;8.03;;;7.17;;
568;SDS011;269;48.884;9.192;2023-07-22T04:12:13;7.25;;;6.55;;
568;SDS011;269;48.884;9.192;2023-07-22T04:14:40;7.53;;;6.20;;
568;SDS011;269;48.884;9.192;2023-07-22T04:17:08;7.57;;;6.77;;
568;SDS011;269;48.884;9.192;2023-07-22T04:19:35;8.23;;;6.70;;
568;SDS011;269;48.884;9.192;2023-07-22T04:22:02;7.07;;;6.47;;
568;SDS011;269;48.884;9.192;2023-07-22T04:24:29;7.80;;;7.00;;
568;SDS011;269;48.884;9.192;2023-07-22T04:26:56;7.20;;;6.47;;
568;SDS011;269;48.884;9.192;2023-07-22T04:29:23;7.57;;;6.97;;
568;SDS011;269;48.884;9.192;2023-07-22T04:31:50;7.53;;;6.83;;
568;SDS011;269;48.884;9.192;2023-07-22T04:34:18;7.80;;;7.10;;
568;SDS011;269;48.884;9.192;2023-07-22T04:36:45;6.57;;;6.00;;
568;SDS011;269;48.884;9.192;2023-07-22T04:39:12;6.73;;;6.13;;
568;SDS011;269;48.884;9.192;2023-07-22T04:41:39;7.53;;;5.83;;
568;SDS011;269;48.884;9.192;2023-07-22T04:44:05;7.13;;;6.13;;
568;SDS011;269;48.884;9.192;2023-07-22T04:46:32;6.20;;;5.60;;
568;SDS011;269;48.884;9.192;2023-07-22T04:48:59;6.90;;;6.13;;
568;SDS011;269;48.884;9.192;2023-07-22T04:51:27;6.67;;;6.07;;
568;SDS011;269;48.884;9.192;2023-07-22T04:53:54;5.50;;;5.10;;
568;SDS011;269;48.884;9.192;2023-07-22T04:56:21;6.67;;;5.97;;
568;SDS011;269;48.884;9.192;2023-07-22T04:58:48;6.10;;;5.00;;
568;SDS011;269;48.884;9.192;2023-07-22T05:01:15;6.00;;;5.40;;
568;SDS011;269;48.884;9.192;2023-07-22T05:03:42;5.53;;;5.13;;
568;SDS011;269;48.884;9.192;2023-07-22T05:06:09;6.30;;;5.70;;
568;SDS011;269;48.884;9.192;2023-07-22T05:08:37;5.97;;;5.37;;
568;SDS011;269;48.884;9.192;2023-07-22T05:11:04;4.90;;;4.50;;
568;SDS011;269;48.884;9.192;2023-07-22T05:13:31;5.43;;;4.93;;
568;SDS011;269;48.884;9.192;2023-07-22T05:15:58;4.70;;;4.30;;
568;SDS011;269;48.884;9.192;2023-07-22T05:18:25;4.60;;;4.20;;
568;SDS011;269;48.884;9.192;2023-07-22T05:20:51;4.73;;;4.20;;
568;SDS011;269;48.884;9.192;2023-07-22T05:23:18;4.20;;;3.80;;
568;SDS011;269;48.884;9.192;2023-07-22T05:25:51;5.27;;;4.77;;
568;SDS011;269;48.884;9.192;2023-07-22T05:28:18;4.57;;;4.17;;
568;SDS011;269;48.884;9.192;2023-07-22T05:30:45;4.13;;;3.83;;
568;SDS011;269;48.884;9.192;2023-07-22T05:33:12;3.80;;;3.50;;
568;SDS011;269;48.884;9.192;2023-07-22T05:35:39;4.40;;;4.00;;
568;SDS011;269;48.884;9.192;2023-07-22T05:38:05;6.23;;;3.50;;
568;SDS011;269;48.884;9.192;2023-07-22T05:40:32;4.23;;;3.93;;
568;SDS011;269;48.884;9.192;2023-07-22T05:43:00;4.73;;;3.70;;
568;SDS011;269;48.884;9.192;2023-07-22T05:45:28;4.20;;;3.80;;
568;SDS011;269;48.884;9.192;2023-07-22T05:47:56;4.27;;;3.87;;
568;SDS011;269;48.884;9.192;2023-07-22T05:50:22;4.20;;;3.73;;
568;SDS011;269;48.884;9.192;2023-07-22T05:52:49;4.23;;;3.83;;
568;SDS011;269;48.884;9.192;2023-07-22T05:55:16;4.30;;;3.90;;
568;SDS011;269;48.884;9.192;2023-07-22T05:57:43;4.90;;;4.40;;
568;SDS011;269;48.884;9.192;2023-07-22T06:00:12;4.00;;;3.70;;
568;SDS011;269;48.884;9.192;2023-07-22T06:02:39;3.70;;;3.40;;
568;SDS011;269;48.884;9.192;2023-07-22T06:05:07;4.43;;;4.03;;
568;SDS011;269;48.884;9.192;2023-07-22T06:07:34;4.50;;;4.10;;
568;SDS011;269;48.884;9.192;2023-07-22T06:10:02;3.93;;;3.50;;
568;SDS011;269;48.884;9.192;2023-07-22T06:12:28;4.03;;;3.63;;
568;SDS011;269;48.884;9.192;2023-07-22T06:14:55;3.67;;;3.37;;
568;SDS011;269;48.884;9.192;2023-07-22T06:17:24;3.40;;;3.20;;
568;SDS011;269;48.884;9.192;2023-07-22T06:19:51;9.13;;;4.30;;
568;SDS011;269;48.884;9.192;2023-07-22T06:22:18;3.73;;;3.40;;
568;SDS011;269;48.884;9.192;2023-07-22T06:24:45;3.53;;;3.23;;
568;SDS011;269;48.884;9.192;2023-07-22T06:27:11;11.53;;;3.77;;
568;SDS011;269;48.884;9.192;2023-07-22T06:29:38;3.70;;;3.40;;
568;SDS011;269;48.884;9.192;2023-07-22T06:32:05;3.70;;;3.23;;
568;SDS011;269;48.884;9.192;2023-07-22T06:34:34;3.20;;;3.00;;
568;SDS011;269;48.884;9.192;2023-07-22T06:37:01;3.27;;;2.80;;
568;SDS011;269;48.884;9.192;2023-07-22T06:39:28;3.40;;;3.10;;
568;SDS011;269;48.884;9.192;2023-07-22T06:41:56;3.80;;;3.50;;
568;SDS011;269;48.884;9.192;2023-07-22T06:44:23;5.53;;;3.30;;
568;SDS011;269;48.884;9.192;2023-07-22T06:46:50;6.50;;;3.90;;
568;SDS011;269;48.884;9.192;2023-07-22T06:49:16;3.57;;;3.27;;
568;SDS011;269;48.884;9.192;2023-07-22T06:51:47;3.60;;;3.30;;
568;SDS011;269;48.884;9.192;2023-07-22T06:54:13;3.53;;;3.27;;
568;SDS011;269;48.884;9.192;2023-07-22T06:56:40;3.30;;;3.00;;
568;SDS011;269;48.884;9.192;2023-07-22T06:59:07;3.37;;;3.07;;
568;SDS011;269;48.884;9.192;2023-07-22T07:01:34;4.07;;;2.97;;
568;SDS011;269;48.884;9.192;2023-07-22T07:04:01;3.00;;;2.70;;
568;SDS011;269;48.884;9.192;2023-07-22T07:06:28;3.10;;;2.80;;
568;SDS011;269;48.884;9.192;2023-07-22T07:08:58;3.17;;;2.87;;
568;SDS011;269;48.884;9.192;2023-07-22T07:11:25;3.20;;;2.90;;
568;SDS011;269;48.884;9.192;2023-07-22T07:13:52;3.33;;;3.10;;
568;SDS011;269;48.884;9.192;2023-07-22T07:16:19;2.90;;;2.60;;
568;SDS011;269;48.884;9.192;2023-07-22T07:18:47;3.00;;;2.80;;
568;SDS011;269;48.884;9.192;2023-07-22T07:21:14;3.20;;;3.00;;
568;SDS011;269;48.884;9.192;2023-07-22T07:23:40;3.50;;;3.20;;
568;SDS011;269;48.884;9.192;2023-07-22T07:26:09;3.37;;;2.77;;
568;SDS011;269;48.884;9.192;2023-07-22T07:28:36;3.43;;;2.67;;
568;SDS011;269;48.884;9.192;2023-07-22T07:31:02;2.80;;;2.60;;
568;SDS011;269;48.884;9.192;2023-07-22T07:33:29;2.63;;;2.33;;
568;SDS011;269;48.884;9.192;2023-07-22T07:35:58;2.90;;;2.33;;
568;SDS011;269;48.884;9.192;2023-07-22T07:38:24;2.67;;;2.47;;
568;SDS011;269;48.884;9.192;2023-07-22T07:40:52;2.60;;;2.43;;
568;SDS011;269;48.884;9.192;2023-07-22T07:43:20;2.83;;;2.30;;
568;SDS011;269;48.884;9.192;2023-07-22T07:45:47;2.47;;;2.27;;
568;SDS011;269;48.884;9.192;2023-07-22T07:48:14;2.40;;;2.20;;
568;SDS011;269;48.884;9.192;2023-07-22T07:50:41;3.30;;;3.00;;
568;SDS011;269;48.884;9.192;2023-07-22T07:53:08;2.70;;;2.47;;
568;SDS011;269;48.884;9.192;2023-07-22T07:55:35;3.53;;;2.50;;
568;SDS011;269;48.884;9.192;2023-07-22T07:58:02;2.87;;;2.67;;
568;SDS011;269;48.884;9.192;2023-07-22T08:00:30;3.20;;;2.40;;
568;SDS011;269;48.884;9.192;2023-07-22T08:02:57;3.93;;;3.03;;
568;SDS011;269;48.884;9.192;2023-07-22T08:05:24;2.77;;;2.50;;
568;SDS011;269;48.884;9.192;2023-07-22T08:07:51;2.77;;;2.57;;
568;SDS011;269;48.884;9.192;2023-07-22T08:10:18;2.80;;;2.60;;
568;SDS011;269;48.884;9.192;2023-07-22T08:12:45;2.63;;;2.43;;
568;SDS011;269;48.884;9.192;2023-07-22T08:15:11;4.00;;;3.03;;
568;SDS011;269;48.884;9.192;2023-07-22T08:17:39;3.77;;;2.70;;
568;SDS011;269;48.884;9.192;2023-07-22T08:20:07;2.70;;;2.50;;
568;SDS011;269;48.884;9.192;2023-07-22T08:22:35;2.70;;;2.50;;
568;SDS011;269;48.884;9.192;2023-07-22T08:25:02;2.70;;;2.50;;
568;SDS011;269;48.884;9.192;2023-07-22T08:27:30;2.90;;;2.40;;
568;SDS011;269;48.884;9.192;2023-07-22T08:29:57;2.10;;;2.00;;
568;SDS011;269;48.884;9.192;2023-07-22T08:32:23;2.60;;;2.40;;
568;SDS011;269;48.884;9.192;2023-07-22T08:34:52;2.20;;;2.10;;
568;SDS011;269;48.884;9.192;2023-07-22T08:37:18;2.50;;;2.30;;
568;SDS011;269;48.884;9.192;2023-07-22T08:39:46;2.20;;;2.10;;
568;SDS011;269;48.884;9.192;2023-07-22T08:42:13;3.17;;;2.10;;
568;SDS011;269;48.884;9.192;2023-07-22T08:44:41;2.43;;;2.23;;
568;SDS011;269;48.884;9.192;2023-07-22T08:47:10;2.50;;;2.30;;
568;SDS011;269;48.884;9.192;2023-07-22T08:49:40;2.57;;;2.37;;
568;SDS011;269;48.884;9.192;2023-07-22T08:52:09;2.67;;;2.47;;
568;SDS011;269;48.884;9.192;2023-07-22T08:54:36;2.73;;;2.53;;
568;SDS011;269;48.884;9.192;2023-07-22T08:57:04;2.57;;;2.37;;
568;SDS011;269;48.884;9.192;2023-07-22T08:59:32;2.60;;;2.40;;
568;SDS011;269;48.884;9.192;2023-07-22T09:01:59;3.10;;;2.27;;
568;SDS011;269;48.884;9.192;2023-07-22T09:04:26;3.03;;;2.50;;
568;SDS011;269;48.884;9.192;2023-07-22T09:06:53;2.13;;;2.00;;
568;SDS011;269;48.884;9.192;2023-07-22T09:09:22;2.90;;;2.70;;
568;SDS011;269;48.884;9.192;2023-07-22T09:11:51;2.90;;;2.30;;
568;SDS011;269;48.884;9.192;2023-07-22T09:14:18;2.50;;;2.30;;
568;SDS011;269;48.884;9.192;2023-07-22T09:16:45;2.90;;;2.70;;
568;SDS011;269;48.884;9.192;2023-07-22T09:19:12;2.63;;;2.43;;
568;SDS011;269;48.884;9.192;2023-07-22T09:21:39;3.00;;;2.47;;
568;SDS011;269;48.884;9.192;2023-07-22T09:24:19;3.00;;;2.33;;
568;SDS011;269;48.884;9.192;2023-07-22T09:26:48;2.60;;;2.40;;
568;SDS011;269;48.884;9.192;2023-07-22T09:29:15;3.77;;;2.00;;
568;SDS011;269;48.884;9.192;2023-07-22T09:31:51;2.43;;;2.23;;
568;SDS011;269;48.884;9.192;2023-07-22T09:34:19;2.40;;;2.10;;
568;SDS011;269;48.884;9.192;2023-07-22T09:36:51;2.53;;;2.33;;
568;SDS011;269;48.884;9.192;2023-07-22T09:39:18;2.60;;;2.23;;
568;SDS011;269;48.884;9.192;2023-07-22T09:41:45;3.77;;;1.93;;
568;SDS011;269;48.884;9.192;2023-07-22T09:44:14;2.30;;;2.10;;
568;SDS011;269;48.884;9.192;2023-07-22T09:46:41;2.03;;;1.83;;
568;SDS011;269;48.884;9.192;2023-07-22T09:49:08;3.57;;;2.23;;
568;SDS011;269;48.884;9.192;2023-07-22T09:51:37;26.47;;;4.47;;
568;SDS011;269;48.884;9.192;2023-07-22T09:54:05;2.50;;;2.30;;
568;SDS011;269;48.884;9.192;2023-07-22T09:56:33;2.93;;;2.30;;
568;SDS011;269;48.884;9.192;2023-07-22T09:59:10;2.70;;;2.50;;
568;SDS011;269;48.884;9.192;2023-07-22T10:01:39;3.00;;;2.40;;
568;SDS011;269;48.884;9.192;2023-07-22T10:04:06;2.20;;;2.00;;
568;SDS011;269;48.884;9.192;2023-07-22T10:06:34;1.83;;;1.73;;
568;SDS011;269;48.884;9.192;2023-07-22T10:09:01;1.90;;;1.80;;
568;SDS011;269;48.884;9.192;2023-07-22T10:11:33;1.90;;;1.80;;
568;SDS011;269;48.884;9.192;2023-07-22T10:14:01;2.00;;;1.90;;
568;SDS011;269;48.884;9.192;2023-07-22T10:16:28;4.67;;;1.97;;
568;SDS011;269;48.884;9.192;2023-07-22T10:18:56;2.20;;;1.70;;
568;SDS011;269;48.884;9.192;2023-07-22T10:21:24;2.60;;;1.90;;
568;SDS011;269;48.884;9.192;2023-07-22T10:23:51;1.83;;;1.73;;
568;SDS011;269;48.884;9.192;2023-07-22T10:26:19;3.40;;;3.00;;
568;SDS011;269;48.884;9.192;2023-07-22T10:28:46;3.27;;;2.97;;
568;SDS011;269;48.884;9.192;2023-07-22T10:31:13;2.70;;;2.07;;
568;SDS011;269;48.884;9.192;2023-07-22T10:33:44;2.40;;;1.77;;
568;SDS011;269;48.884;9.192;2023-07-22T10:36:14;3.57;;;1.70;;
568;SDS011;269;48.884;9.192;2023-07-22T10:38:42;2.03;;;1.73;;
568;SDS011;269;48.884;9.192;2023-07-22T10:41:12;2.00;;;1.80;;
568;SDS011;269;48.884;9.192;2023-07-22T10:43:42;1.83;;;1.70;;
568;SDS011;269;48.884;9.192;2023-07-22T10:46:30;2.20;;;1.87;;
568;SDS011;269;48.884;9.192;2023-07-22T10:49:06;2.13;;;1.93;;
568;SDS011;269;48.884;9.192;2023-07-22T10:51:36;1.80;;;1.70;;
568;SDS011;269;48.884;9.192;2023-07-22T10:54:10;1.83;;;1.60;;
568;SDS011;269;48.884;9.192;2023-07-22T10:56:37;1.70;;;1.60;;
568;SDS011;269;48.884;9.192;2023-07-22T10:59:04;2.17;;;1.90;;
568;SDS011;269;48.884;9.192;2023-07-22T11:01:37;2.13;;;1.67;;
568;SDS011;269;48.884;9.192;2023-07-22T11:04:05;1.83;;;1.73;;
568;SDS011;269;48.884;9.192;2023-07-22T11:06:33;1.63;;;1.53;;
568;SDS011;269;48.884;9.192;2023-07-22T11:09:02;3.53;;;1.70;;
568;SDS011;269;48.884;9.192;2023-07-22T11:11:36;2.20;;;2.10;;
568;SDS011;269;48.884;9.192;2023-07-22T11:14:16;1.90;;;1.80;;
568;SDS011;269;48.884;9.192;2023-07-22T11:16:44;2.27;;;2.00;;
568;SDS011;269;48.884;9.192;2023-07-22T11:19:12;1.53;;;1.43;;
568;SDS011;269;48.884;9.192;2023-07-22T11:21:39;1.57;;;1.47;;
568;SDS011;269;48.884;9.192;2023-07-22T11:24:08;2.73;;;1.70;;
568;SDS011;269;48.884;9.192;2023-07-22T11:26:35;1.80;;;1.70;;
568;SDS011;269;48.884;9.192;2023-07-22T11:29:03;1.90;;;1.80;;
568;SDS011;269;48.884;9.192;2023-07-22T11:31:31;1.50;;;1.40;;
568;SDS011;269;48.884;9.192;2023-07-22T11:33:58;3.73;;;1.97;;
568;SDS011;269;48.884;9.192;2023-07-22T11:36:25;1.93;;;1.80;;
568;SDS011;269;48.884;9.192;2023-07-22T11:38:52;1.80;;;1.70;;
568;SDS011;269;48.884;9.192;2023-07-22T11:41:21;1.97;;;1.87;;
568;SDS011;269;48.884;9.192;2023-07-22T11:43:49;1.97;;;1.77;;
568;SDS011;269;48.884;9.192;2023-07-22T11:46:16;2.40;;;2.20;;
568;SDS011;269;48.884;9.192;2023-07-22T11:48:49;2.10;;;1.90;;
568;SDS011;269;48.884;9.192;2023-07-22T11:51:18;3.10;;;2.00;;
568;SDS011;269;48.884;9.192;2023-07-22T11:53:46;2.20;;;2.00;;
568;SDS011;269;48.884;9.192;2023-07-22T11:56:17;2.00;;;1.80;;
568;SDS011;269;48.884;9.192;2023-07-22T11:58:49;1.90;;;1.80;;
568;SDS011;269;48.884;9.192;2023-07-22T12:01:16;2.37;;;2.10;;
568;SDS011;269;48.884;9.192;2023-07-22T12:03:43;2.07;;;1.87;;
568;SDS011;269;48.884;9.192;2023-07-22T12:06:10;1.97;;;1.87;;
568;SDS011;269;48.884;9.192;2023-07-22T12:08:42;2.10;;;2.00;;
568;SDS011;269;48.884;9.192;2023-07-22T12:11:15;2.33;;;2.20;;
568;SDS011;269;48.884;9.192;2023-07-22T12:13:43;2.30;;;2.10;;
568;SDS011;269;48.884;9.192;2023-07-22T12:16:13;2.50;;;1.93;;
568;SDS011;269;48.884;9.192;2023-07-22T12:18:43;1.87;;;1.77;;
568;SDS011;269;48.884;9.192;2023-07-22T12:21:10;1.80;;;1.70;;
568;SDS011;269;48.884;9.192;2023-07-22T12:23:37;2.13;;;1.97;;
568;SDS011;269;48.884;9.192;2023-07-22T12:26:04;1.90;;;1.80;;
568;SDS011;269;48.884;9.192;2023-07-22T12:28:31;2.43;;;2.20;;
568;SDS011;269;48.884;9.192;2023-07-22T12:30:58;2.10;;;2.00;;
568;SDS011;269;48.884;9.192;2023-07-22T12:33:27;2.13;;;2.03;;
568;SDS011;269;48.884;9.192;2023-07-22T12:35:54;2.20;;;2.10;;
568;SDS011;269;48.884;9.192;2023-07-22T12:38:23;2.43;;;2.23;;
568;SDS011;269;48.884;9.192;2023-07-22T12:40:49;2.20;;;2.00;;
568;SDS011;269;48.884;9.192;2023-07-22T12:43:16;2.33;;;2.20;;
568;SDS011;269;48.884;9.192;2023-07-22T12:45:43;2.60;;;2.40;;
568;SDS011;269;48.884;9.192;2023-07-22T12:48:10;2.20;;;2.10;;
568;SDS011;269;48.884;9.192;2023-07-22T12:50:38;2.27;;;2.17;;
568;SDS011;269;48.884;9.192;2023-07-22T12:53:05;2.57;;;2.37;;
568;SDS011;269;48.884;9.192;2023-07-22T12:55:32;2.20;;;1.90;;
568;SDS011;269;48.884;9.192;2023-07-22T12:57:58;2.33;;;1.90;;
568;SDS011;269;48.884;9.192;2023-07-22T13:00:25;2.63;;;2.00;;
568;SDS011;269;48.884;9.192;2023-07-22T13:02:52;2.00;;;1.90;;
568;SDS011;269;48.884;9.192;2023-07-22T13:05:19;2.60;;;2.27;;
568;SDS011;269;48.884;9.192;2023-07-22T13:07:47;2.20;;;1.80;;
568;SDS011;269;48.884;9.192;2023-07-22T13:10:15;3.03;;;2.83;;
568;SDS011;269;48.884;9.192;2023-07-22T13:12:43;3.03;;;2.60;;
568;SDS011;269;48.884;9.192;2023-07-22T13:15:11;2.30;;;2.20;;
568;SDS011;269;48.884;9.192;2023-07-22T13:17:37;2.20;;;2.10;;
568;SDS011;269;48.884;9.192;2023-07-22T13:20:04;1.90;;;1.80;;
568;SDS011;269;48.884;9.192;2023-07-22T13:22:34;1.97;;;1.87;;
568;SDS011;269;48.884;9.192;2023-07-22T13:25:02;2.20;;;2.00;;
568;SDS011;269;48.884;9.192;2023-07-22T13:27:30;2.23;;;2.13;;
568;SDS011;269;48.884;9.192;2023-07-22T13:29:57;2.33;;;2.10;;
568;SDS011;269;48.884;9.192;2023-07-22T13:32:23;2.30;;;2.10;;
568;SDS011;269;48.884;9.192;2023-07-22T13:34:50;1.93;;;1.83;;
568;SDS011;269;48.884;9.192;2023-07-22T13:37:17;2.37;;;2.00;;
568;SDS011;269;48.884;9.192;2023-07-22T13:39:45;2.60;;;2.23;;
568;SDS011;269;48.884;9.192;2023-07-22T13:42:13;2.07;;;1.97;;
568;SDS011;269;48.884;9.192;2023-07-22T13:44:40;2.20;;;2.00;;
568;SDS011;269;48.884;9.192;2023-07-22T13:47:07;2.47;;;2.27;;
568;SDS011;269;48.884;9.192;2023-07-22T13:49:34;2.30;;;2.20;;
568;SDS011;269;48.884;9.192;2023-07-22T13:52:00;2.00;;;1.90;;
568;SDS011;269;48.884;9.192;2023-07-22T13:54:28;2.50;;;2.30;;
568;SDS011;269;48.884;9.192;2023-07-22T13:56:54;2.50;;;2.17;;
568;SDS011;269;48.884;9.192;2023-07-22T13:59:23;2.20;;;2.00;;
568;SDS011;269;48.884;9.192;2023-07-22T14:01:50;3.83;;;2.90;;
568;SDS011;269;48.884;9.192;2023-07-22T14:04:16;2.90;;;2.13;;
568;SDS011;269;48.884;9.192;2023-07-22T14:06:43;2.90;;;2.60;;
568;SDS011;269;48.884;9.192;2023-07-22T14:09:10;3.47;;;2.27;;
568;SDS011;269;48.884;9.192;2023-07-22T14:11:37;2.60;;;2.37;;
568;SDS011;269;48.884;9.192;2023-07-22T14:14:04;2.40;;;2.20;;
568;SDS011;269;48.884;9.192;2023-07-22T14:16:32;3.13;;;2.40;;
568;SDS011;269;48.884;9.192;2023-07-22T14:18:59;2.40;;;2.20;;
568;SDS011;269;48.884;9.192;2023-07-22T14:21:26;2.20;;;2.10;;
568;SDS011;269;48.884;9.192;2023-07-22T14:23:53;2.30;;;2.20;;
568;SDS011;269;48.884;9.192;2023-07-22T14:26:20;2.30;;;2.10;;
568;SDS011;269;48.884;9.192;2023-07-22T14:28:47;2.60;;;2.40;;
568;SDS011;269;48.884;9.192;2023-07-22T14:31:14;2.73;;;2.53;;
568;SDS011;269;48.884;9.192;2023-07-22T14:33:42;2.33;;;2.13;;
568;SDS011;269;48.884;9.192;2023-07-22T14:36:09;2.33;;;2.13;;
568;SDS011;269;48.884;9.192;2023-07-22T14:38:35;2.97;;;2.57;;
568;SDS011;269;48.884;9.192;2023-07-22T14:41:02;2.73;;;2.53;;
568;SDS011;269;48.884;9.192;2023-07-22T14:43:29;3.40;;;2.80;;
568;SDS011;269;48.884;9.192;2023-07-22T14:45:56;2.60;;;2.40;;
568;SDS011;269;48.884;9.192;2023-07-22T14:48:22;3.30;;;2.93;;
568;SDS011;269;48.884;9.192;2023-07-22T14:50:51;2.90;;;2.70;;
568;SDS011;269;48.884;9.192;2023-07-22T14:53:18;2.73;;;2.53;;
568;SDS011;269;48.884;9.192;2023-07-22T14:55:45;2.63;;;2.43;;
568;SDS011;269;48.884;9.192;2023-07-22T14:58:12;2.67;;;2.47;;
568;SDS011;269;48.884;9.192;2023-07-22T15:00:39;2.80;;;2.60;;
568;SDS011;269;48.884;9.192;2023-07-22T15:03:06;3.03;;;2.40;;
568;SDS011;269;48.884;9.192;2023-07-22T15:05:33;2.40;;;2.20;;
568;SDS011;269;48.884;9.192;2023-07-22T15:08:01;3.10;;;2.83;;
568;SDS011;269;48.884;9.192;2023-07-22T15:10:28;2.93;;;2.60;;
568;SDS011;269;48.884;9.192;2023-07-22T15:12:55;2.50;;;2.30;;
568;SDS011;269;48.884;9.192;2023-07-22T15:15:22;2.90;;;2.70;;
568;SDS011;269;48.884;9.192;2023-07-22T15:17:49;3.10;;;2.63;;
568;SDS011;269;48.884;9.192;2023-07-22T15:20:16;2.53;;;2.33;;
568;SDS011;269;48.884;9.192;2023-07-22T15:22:43;3.03;;;2.83;;
568;SDS011;269;48.884;9.192;2023-07-22T15:25:11;2.80;;;2.60;;
568;SDS011;269;48.884;9.192;2023-07-22T15:27:38;2.80;;;2.60;;
568;SDS011;269;48.884;9.192;2023-07-22T15:30:05;2.80;;;2.60;;
568;SDS011;269;48.884;9.192;2023-07-22T15:32:33;3.87;;;2.40;;
568;SDS011;269;48.884;9.192;2023-07-22T15:35:00;2.73;;;2.53;;
568;SDS011;269;48.884;9.192;2023-07-22T15:37:26;2.93;;;2.50;;
568;SDS011;269;48.884;9.192;2023-07-22T15:39:53;3.30;;;2.47;;
568;SDS011;269;48.884;9.192;2023-07-22T15:42:21;2.80;;;2.60;;
568;SDS011;269;48.884;9.192;2023-07-22T15:44:48;2.60;;;2.40;;
568;SDS011;269;48.884;9.192;2023-07-22T15:47:14;2.87;;;2.67;;